MOL Emissary — VRFX6 — position and weather

sailwx.info

Track history (hours):
 
Tides and Currents Weather Stations Pressure Air Temp Water Temp Dewpoint Dewpoint Depression Visibility Wind Speed Wind Dir Waves Ship Positions

MOL Emissary

Last reported at 2018-Feb-25 05:28 UTC. Time now 2018-Feb-25 05:59 UTC.
Position N 51°20' E 004°17'.

Length 294 m; draft 11.3 m.

Type: Ship (hazmat cat A). MMSI: 477627300.

Date/timePositionNaut miles runAvg speedWind from/ knotsBaromVisibWave heightAir tempDewpointWater temp
2018-Feb-25 05:28N 51°20' E 004°17'0 0.0
2018-Feb-25 04:58N 51°20' E 004°17'0 0.0
2018-Feb-25 04:30N 51°20' E 004°17'0 0.0
2018-Feb-25 04:00N 51°20' E 004°17'0 0.0
2018-Feb-25 03:31N 51°20' E 004°17'0 0.0
2018-Feb-25 03:00N 51°20' E 004°17'0 0.0
2018-Feb-25 02:30N 51°20' E 004°17'0 0.0
2018-Feb-25 02:00N 51°20' E 004°17'0 0.0
2018-Feb-25 01:29N 51°20' E 004°17'0 0.0
2018-Feb-25 01:00N 51°20' E 004°17'0 0.0
2018-Feb-25 00:30N 51°20' E 004°17'0 0.0
2018-Feb-25 00:01N 51°20' E 004°17'0 0.0
2018-Feb-24 23:31N 51°20' E 004°17'0 0.0
2018-Feb-24 22:58N 51°20' E 004°17'0 0.0
2018-Feb-24 22:30N 51°20' E 004°17'0 0.0
2018-Feb-24 22:00N 51°20' E 004°17'0 0.0
2018-Feb-24 21:30N 51°20' E 004°17'0 0.0
2018-Feb-24 21:00N 51°20' E 004°17'0 0.0
2018-Feb-24 20:31N 51°20' E 004°17'0 0.0
2018-Feb-24 20:00N 51°20' E 004°17'0 0.0
2018-Feb-24 19:28N 51°20' E 004°17'0 0.0
2018-Feb-24 18:59N 51°20' E 004°17'0 0.0
2018-Feb-24 18:30N 51°20' E 004°17'0 0.0
2018-Feb-24 17:59N 51°20' E 004°17'0 0.1
2018-Feb-24 17:30N 51°20' E 004°17'1 2.1
2018-Feb-24 17:00N 51°21' E 004°15'4 8.2
2018-Feb-24 16:30N 51°24' E 004°11'510.6
2018-Feb-24 16:00N 51°23' E 004°02'3 6.4
2018-Feb-24 15:31N 51°23' E 003°57'612.2
2018-Feb-24 15:00N 51°21' E 003°48'612.6
2018-Feb-24 14:31N 51°26' E 003°41'5 9.6
2018-Feb-24 14:00N 51°26' E 003°33'5 9.1
2018-Feb-24 13:30N 51°25' E 003°26'511.0
2018-Feb-24 13:01N 51°24' E 003°18'611.4
2018-Feb-24 12:30N 51°24' E 003°08'713.4
2018-Feb-24 12:00N 51°23' E 002°58'815.6
2018-Feb-24 11:30N 51°22' E 002°45'4 8.8
2018-Feb-24 11:00N 51°22' E 002°38'1 1.5
2018-Feb-24 10:30N 51°22' E 002°37'3 6.2
2018-Feb-24 10:00N 51°22' E 002°32'4 8.5
2018-Feb-24 09:30N 51°20' E 002°26'714.1
2018-Feb-24 09:00N 51°18' E 002°15'919.0
2018-Feb-24 08:31N 51°14' E 002°02'1019.4
2018-Feb-24 08:00N 51°09' E 001°49'1020.0
2018-Feb-24 07:30N 51°01' E 001°39'1019.7
2018-Feb-24 07:00N 50°55' E 001°26'1120.3
2018-Feb-24 06:27N 50°44' E 001°24'1119.1
2018-Feb-24 05:52N 50°35' E 001°13'919.3
2018-Feb-24 05:24N 50°29' E 001°02'818.8
2018-Feb-24 04:58N 50°26' E 000°50'1519.0
2018-Feb-24 04:11N 50°22' E 000°28'419.2
2018-Feb-24 03:59N 50°21' E 000°22'919.4
2018-Feb-24 03:30N 50°20' E 000°07'1019.8
2018-Feb-24 03:00N 50°20' W 000°08'1020.4
2018-Feb-24 02:30N 50°21' W 000°24'918.2
2018-Feb-24 02:00N 50°27' W 000°35'1020.2
2018-Feb-24 01:31N 50°33' W 000°47'816.8
2018-Feb-24 01:00N 50°39' W 000°56'510.8
2018-Feb-24 00:30N 50°43' W 001°02'816.6
2018-Feb-24 00:00N 50°46' W 001°14'5 9.4
2018-Feb-23 23:30N 50°50' W 001°19'5 9.7
2018-Feb-23 23:01N 50°53' W 001°24'2 3.6
2018-Feb-23 22:30N 50°54' W 001°27'1 1.8
2018-Feb-23 22:00N 50°55' W 001°28'0 0.0
2018-Feb-23 21:23N 50°55' W 001°28'0 0.0
2018-Feb-23 20:53N 50°55' W 001°28'0 0.0
2018-Feb-23 20:23N 50°55' W 001°28'0 0.0
2018-Feb-23 19:53N 50°55' W 001°28'0 0.0
2018-Feb-23 19:23N 50°55' W 001°28'0 0.0
2018-Feb-23 18:53N 50°55' W 001°28'0 0.0
2018-Feb-23 18:26N 50°55' W 001°28'0 0.0
2018-Feb-23 17:50N 50°55' W 001°28'0 0.0
2018-Feb-23 17:26N 50°55' W 001°28'0 0.0
2018-Feb-23 15:38N 50°55' W 001°28'0 0.0
2018-Feb-23 15:11N 50°55' W 001°28'0 0.1
2018-Feb-23 14:56N 50°55' W 001°28'0 0.0
2018-Feb-23 14:29N 50°55' W 001°28'0 0.0
2018-Feb-23 13:59N 50°55' W 001°28'0 0.0
2018-Feb-23 13:29N 50°55' W 001°28'0 0.0
2018-Feb-23 12:59N 50°55' W 001°28'0 0.0
2018-Feb-23 12:29N 50°55' W 001°28'0 0.0
2018-Feb-23 11:56N 50°55' W 001°28'0 0.0
2018-Feb-23 11:29N 50°55' W 001°28'0 0.0
2018-Feb-23 10:59N 50°55' W 001°28'0 0.0
2018-Feb-23 10:29N 50°55' W 001°28'0 0.0
2018-Feb-23 09:59N 50°55' W 001°28'0 0.0
2018-Feb-23 09:29N 50°55' W 001°28'0 0.0
2018-Feb-23 08:59N 50°55' W 001°28'0 0.0
2018-Feb-23 08:20N 50°55' W 001°28'0 0.0
2018-Feb-23 07:51N 50°55' W 001°28'0 1.1
2018-Feb-23 07:30N 50°54' W 001°27'2 3.9
2018-Feb-23 07:00N 50°53' W 001°25'4 8.3
2018-Feb-23 06:30N 50°51' W 001°20'4 8.5
2018-Feb-23 06:00N 50°47' W 001°19'714.5
2018-Feb-23 05:31N 50°45' W 001°07'917.4
2018-Feb-23 05:00N 50°40' W 000°57'5 9.2
2018-Feb-23 04:30N 50°35' W 000°58'3 7.0
2018-Feb-23 04:00N 50°32' W 000°57'1 2.8
2018-Feb-23 03:30N 50°31' W 000°57'5 9.0
2018-Feb-23 03:00N 50°26' W 000°55'1310.1
2018-Feb-23 01:40N 50°13' W 000°56'311.6
2018-Feb-23 01:22N 50°11' W 001°00'813.3
2018-Feb-23 00:47N 50°09' W 001°12'413.8
2018-Feb-23 00:30N 50°08' W 001°18'714.0
2018-Feb-23 00:01N 50°06' W 001°28'713.9
2018-Feb-22 23:30N 50°04' W 001°39'713.9
2018-Feb-22 23:00N 50°02' W 001°50'713.6
2018-Feb-22 22:31N 50°01' W 001°59'713.7
2018-Feb-22 22:00N 49°59' W 002°10'713.5
2018-Feb-22 21:30N 49°57' W 002°20'713.4
2018-Feb-22 20:57N 49°55' W 002°31'613.1
2018-Feb-22 20:31N 49°53' W 002°40'712.9
2018-Feb-22 20:00N 49°51' W 002°49'712.6
2018-Feb-22 19:29N 49°50' W 002°59'612.6
2018-Feb-22 19:01N 49°49' W 003°08'712.4
2018-Feb-22 18:29N 49°47' W 003°18'612.3
2018-Feb-22 18:00N 49°47' W 003°27'612.4
2018-Feb-22 17:30N 49°46' W 003°37'612.5
2018-Feb-22 17:00N 49°46' W 003°46'2512.4
2018-Feb-22 15:01N 49°41' W 004°24'014.1
2018-Feb-22 15:00N 49°41' W 004°24'44616.5
2018-Feb-21 12:00N 49°48' W 015°54'22518.8 170 / 271022.210.8 16.010.414.0
2018-Feb-21 00:00N 49°36' W 021°42'22618.8 170 / 261019.2 5.4 14.010.213.0
2018-Feb-20 12:00N 49°00' W 027°24'22318.6 140 / 361016.210.8 15.0 9.212.0
2018-Feb-20 00:00N 48°12' W 032°54'33318.5 130 / 321016.210.8 13.0 6.8 9.0
2018-Feb-19 06:00N 46°30' W 040°42'35319.6 110 / 41020.210.8 3.0-2.8 3.0
2018-Feb-18 12:00N 44°12' W 048°24'8614.3 310 / 201026.2 5.4 1.0-9.3 6.0
2018-Feb-18 06:00N 43°36' W 050°12'8514.2 300 / 241025.227.0 -1.0-4.3 1.0
2018-Feb-18 00:00N 42°54' W 051°54'7512.6 330 / 311020.2 5.4 11.0 1.514.0
2018-Feb-17 18:00N 42°18' W 053°24'6811.4 320 / 321016.2 5.4 15.0 9.215.0
2018-Feb-17 12:00N 41°42' W 054°42'7312.1 300 / 351005.2 5.4 14.010.217.0
2018-Feb-17 06:00N 41°06' W 056°06'24520.4 280 / 271001.210.8 18.014.618.0
2018-Feb-16 18:00N 38°54' W 060°36'22018.3 220 / 201008.210.8 25.022.024.0
2018-Feb-16 06:00N 36°48' W 064°24'10918.2 230 / 311015.210.8 21.019.421.0
2018-Feb-16 00:00N 35°42' W 066°12'34519.2 240 / 191019.210.8 23.019.921.0
2018-Feb-15 06:00N 32°06' W 071°36'   100 / 41025.210.8 20.016.720.0
Track history (hours):
 
Tides and Currents Weather Stations Pressure Air Temp Water Temp Dewpoint Dewpoint Depression Visibility Wind Speed Wind Dir Waves Ship Positions

MOL Emissary

Last reported at 2018-Feb-25 05:28 UTC. Time now 2018-Feb-25 05:59 UTC.
Position N 51°20' E 004°17'.

Length 294 m; draft 11.3 m.

Type: Ship (hazmat cat A). MMSI: 477627300.

Date/timePositionNaut miles runAvg speedWind from/ knotsBaromVisibWave heightAir tempDewpointWater temp
2018-Feb-25 05:28N 51°20' E 004°17'0 0.0
2018-Feb-25 04:58N 51°20' E 004°17'0 0.0
2018-Feb-25 04:30N 51°20' E 004°17'0 0.0
2018-Feb-25 04:00N 51°20' E 004°17'0 0.0
2018-Feb-25 03:31N 51°20' E 004°17'0 0.0
2018-Feb-25 03:00N 51°20' E 004°17'0 0.0
2018-Feb-25 02:30N 51°20' E 004°17'0 0.0
2018-Feb-25 02:00N 51°20' E 004°17'0 0.0
2018-Feb-25 01:29N 51°20' E 004°17'0 0.0
2018-Feb-25 01:00N 51°20' E 004°17'0 0.0
2018-Feb-25 00:30N 51°20' E 004°17'0 0.0
2018-Feb-25 00:01N 51°20' E 004°17'0 0.0
2018-Feb-24 23:31N 51°20' E 004°17'0 0.0
2018-Feb-24 22:58N 51°20' E 004°17'0 0.0
2018-Feb-24 22:30N 51°20' E 004°17'0 0.0
2018-Feb-24 22:00N 51°20' E 004°17'0 0.0
2018-Feb-24 21:30N 51°20' E 004°17'0 0.0
2018-Feb-24 21:00N 51°20' E 004°17'0 0.0
2018-Feb-24 20:31N 51°20' E 004°17'0 0.0
2018-Feb-24 20:00N 51°20' E 004°17'0 0.0
2018-Feb-24 19:28N 51°20' E 004°17'0 0.0
2018-Feb-24 18:59N 51°20' E 004°17'0 0.0
2018-Feb-24 18:30N 51°20' E 004°17'0 0.0
2018-Feb-24 17:59N 51°20' E 004°17'0 0.1
2018-Feb-24 17:30N 51°20' E 004°17'1 2.1
2018-Feb-24 17:00N 51°21' E 004°15'4 8.2
2018-Feb-24 16:30N 51°24' E 004°11'510.6
2018-Feb-24 16:00N 51°23' E 004°02'3 6.4
2018-Feb-24 15:31N 51°23' E 003°57'612.2
2018-Feb-24 15:00N 51°21' E 003°48'612.6
2018-Feb-24 14:31N 51°26' E 003°41'5 9.6
2018-Feb-24 14:00N 51°26' E 003°33'5 9.1
2018-Feb-24 13:30N 51°25' E 003°26'511.0
2018-Feb-24 13:01N 51°24' E 003°18'611.4
2018-Feb-24 12:30N 51°24' E 003°08'713.4
2018-Feb-24 12:00N 51°23' E 002°58'815.6
2018-Feb-24 11:30N 51°22' E 002°45'4 8.8
2018-Feb-24 11:00N 51°22' E 002°38'1 1.5
2018-Feb-24 10:30N 51°22' E 002°37'3 6.2
2018-Feb-24 10:00N 51°22' E 002°32'4 8.5
2018-Feb-24 09:30N 51°20' E 002°26'714.1
2018-Feb-24 09:00N 51°18' E 002°15'919.0
2018-Feb-24 08:31N 51°14' E 002°02'1019.4
2018-Feb-24 08:00N 51°09' E 001°49'1020.0
2018-Feb-24 07:30N 51°01' E 001°39'1019.7
2018-Feb-24 07:00N 50°55' E 001°26'1120.3
2018-Feb-24 06:27N 50°44' E 001°24'1119.1
2018-Feb-24 05:52N 50°35' E 001°13'919.3
2018-Feb-24 05:24N 50°29' E 001°02'818.8
2018-Feb-24 04:58N 50°26' E 000°50'1519.0
2018-Feb-24 04:11N 50°22' E 000°28'419.2
2018-Feb-24 03:59N 50°21' E 000°22'919.4
2018-Feb-24 03:30N 50°20' E 000°07'1019.8
2018-Feb-24 03:00N 50°20' W 000°08'1020.4
2018-Feb-24 02:30N 50°21' W 000°24'918.2
2018-Feb-24 02:00N 50°27' W 000°35'1020.2
2018-Feb-24 01:31N 50°33' W 000°47'816.8
2018-Feb-24 01:00N 50°39' W 000°56'510.8
2018-Feb-24 00:30N 50°43' W 001°02'816.6
2018-Feb-24 00:00N 50°46' W 001°14'5 9.4
2018-Feb-23 23:30N 50°50' W 001°19'5 9.7
2018-Feb-23 23:01N 50°53' W 001°24'2 3.6
2018-Feb-23 22:30N 50°54' W 001°27'1 1.8
2018-Feb-23 22:00N 50°55' W 001°28'0 0.0
2018-Feb-23 21:23N 50°55' W 001°28'0 0.0
2018-Feb-23 20:53N 50°55' W 001°28'0 0.0
2018-Feb-23 20:23N 50°55' W 001°28'0 0.0
2018-Feb-23 19:53N 50°55' W 001°28'0 0.0
2018-Feb-23 19:23N 50°55' W 001°28'0 0.0
2018-Feb-23 18:53N 50°55' W 001°28'0 0.0
2018-Feb-23 18:26N 50°55' W 001°28'0 0.0
2018-Feb-23 17:50N 50°55' W 001°28'0 0.0
2018-Feb-23 17:26N 50°55' W 001°28'0 0.0
2018-Feb-23 15:38N 50°55' W 001°28'0 0.0
2018-Feb-23 15:11N 50°55' W 001°28'0 0.1
2018-Feb-23 14:56N 50°55' W 001°28'0 0.0
2018-Feb-23 14:29N 50°55' W 001°28'0 0.0
2018-Feb-23 13:59N 50°55' W 001°28'0 0.0
2018-Feb-23 13:29N 50°55' W 001°28'0 0.0
2018-Feb-23 12:59N 50°55' W 001°28'0 0.0
2018-Feb-23 12:29N 50°55' W 001°28'0 0.0
2018-Feb-23 11:56N 50°55' W 001°28'0 0.0
2018-Feb-23 11:29N 50°55' W 001°28'0 0.0
2018-Feb-23 10:59N 50°55' W 001°28'0 0.0
2018-Feb-23 10:29N 50°55' W 001°28'0 0.0
2018-Feb-23 09:59N 50°55' W 001°28'0 0.0
2018-Feb-23 09:29N 50°55' W 001°28'0 0.0
2018-Feb-23 08:59N 50°55' W 001°28'0 0.0
2018-Feb-23 08:20N 50°55' W 001°28'0 0.0
2018-Feb-23 07:51N 50°55' W 001°28'0 1.1
2018-Feb-23 07:30N 50°54' W 001°27'2 3.9
2018-Feb-23 07:00N 50°53' W 001°25'4 8.3
2018-Feb-23 06:30N 50°51' W 001°20'4 8.5
2018-Feb-23 06:00N 50°47' W 001°19'714.5
2018-Feb-23 05:31N 50°45' W 001°07'917.4
2018-Feb-23 05:00N 50°40' W 000°57'5 9.2
2018-Feb-23 04:30N 50°35' W 000°58'3 7.0
2018-Feb-23 04:00N 50°32' W 000°57'1 2.8
2018-Feb-23 03:30N 50°31' W 000°57'5 9.0
2018-Feb-23 03:00N 50°26' W 000°55'1310.1
2018-Feb-23 01:40N 50°13' W 000°56'311.6
2018-Feb-23 01:22N 50°11' W 001°00'813.3
2018-Feb-23 00:47N 50°09' W 001°12'413.8
2018-Feb-23 00:30N 50°08' W 001°18'714.0
2018-Feb-23 00:01N 50°06' W 001°28'713.9
2018-Feb-22 23:30N 50°04' W 001°39'713.9
2018-Feb-22 23:00N 50°02' W 001°50'713.6
2018-Feb-22 22:31N 50°01' W 001°59'713.7
2018-Feb-22 22:00N 49°59' W 002°10'713.5
2018-Feb-22 21:30N 49°57' W 002°20'713.4
2018-Feb-22 20:57N 49°55' W 002°31'613.1
2018-Feb-22 20:31N 49°53' W 002°40'712.9
2018-Feb-22 20:00N 49°51' W 002°49'712.6
2018-Feb-22 19:29N 49°50' W 002°59'612.6
2018-Feb-22 19:01N 49°49' W 003°08'712.4
2018-Feb-22 18:29N 49°47' W 003°18'612.3
2018-Feb-22 18:00N 49°47' W 003°27'612.4
2018-Feb-22 17:30N 49°46' W 003°37'612.5
2018-Feb-22 17:00N 49°46' W 003°46'2512.4
2018-Feb-22 15:01N 49°41' W 004°24'014.1
2018-Feb-22 15:00N 49°41' W 004°24'44616.5
2018-Feb-21 12:00N 49°48' W 015°54'22518.8 170 / 271022.210.8 16.010.414.0
2018-Feb-21 00:00N 49°36' W 021°42'22618.8 170 / 261019.2 5.4 14.010.213.0
2018-Feb-20 12:00N 49°00' W 027°24'22318.6 140 / 361016.210.8 15.0 9.212.0
2018-Feb-20 00:00N 48°12' W 032°54'33318.5 130 / 321016.210.8 13.0 6.8 9.0
2018-Feb-19 06:00N 46°30' W 040°42'35319.6 110 / 41020.210.8 3.0-2.8 3.0
2018-Feb-18 12:00N 44°12' W 048°24'8614.3 310 / 201026.2 5.4 1.0-9.3 6.0
2018-Feb-18 06:00N 43°36' W 050°12'8514.2 300 / 241025.227.0 -1.0-4.3 1.0
2018-Feb-18 00:00N 42°54' W 051°54'7512.6 330 / 311020.2 5.4 11.0 1.514.0
2018-Feb-17 18:00N 42°18' W 053°24'6811.4 320 / 321016.2 5.4 15.0 9.215.0
2018-Feb-17 12:00N 41°42' W 054°42'7312.1 300 / 351005.2 5.4 14.010.217.0
2018-Feb-17 06:00N 41°06' W 056°06'24520.4 280 / 271001.210.8 18.014.618.0
2018-Feb-16 18:00N 38°54' W 060°36'22018.3 220 / 201008.210.8 25.022.024.0
2018-Feb-16 06:00N 36°48' W 064°24'10918.2 230 / 311015.210.8 21.019.421.0
2018-Feb-16 00:00N 35°42' W 066°12'34519.2 240 / 191019.210.8 23.019.921.0
2018-Feb-15 06:00N 32°06' W 071°36'   100 / 41025.210.8 20.016.720.0

Dump ship's entire track history